sensor_id;sensor_type;location;lat;lon;timestamp;P1;durP1;ratioP1;P2;durP2;ratioP2
1567;SDS011;777;47.156;8.326;2024-01-06T00:04:04;31.10;;;28.00;;
1567;SDS011;777;47.156;8.326;2024-01-06T00:06:30;26.48;;;23.98;;
1567;SDS011;777;47.156;8.326;2024-01-06T00:08:59;28.45;;;25.45;;
1567;SDS011;777;47.156;8.326;2024-01-06T00:11:26;26.85;;;24.20;;
1567;SDS011;777;47.156;8.326;2024-01-06T00:13:52;23.52;;;21.33;;
1567;SDS011;777;47.156;8.326;2024-01-06T00:16:19;22.30;;;20.08;;
1567;SDS011;777;47.156;8.326;2024-01-06T00:18:47;19.05;;;17.27;;
1567;SDS011;777;47.156;8.326;2024-01-06T00:21:14;19.48;;;17.67;;
1567;SDS011;777;47.156;8.326;2024-01-06T00:23:41;17.63;;;15.80;;
1567;SDS011;777;47.156;8.326;2024-01-06T00:26:10;14.27;;;12.88;;
1567;SDS011;777;47.156;8.326;2024-01-06T00:28:37;12.85;;;11.75;;
1567;SDS011;777;47.156;8.326;2024-01-06T00:31:04;7.43;;;6.80;;
1567;SDS011;777;47.156;8.326;2024-01-06T00:33:32;8.02;;;7.32;;
1567;SDS011;777;47.156;8.326;2024-01-06T00:35:58;6.32;;;5.72;;
1567;SDS011;777;47.156;8.326;2024-01-06T00:38:25;6.32;;;5.65;;
1567;SDS011;777;47.156;8.326;2024-01-06T00:40:52;4.35;;;3.95;;
1567;SDS011;777;47.156;8.326;2024-01-06T00:43:20;5.03;;;4.53;;
1567;SDS011;777;47.156;8.326;2024-01-06T00:45:47;3.42;;;3.13;;
1567;SDS011;777;47.156;8.326;2024-01-06T00:48:14;4.40;;;3.10;;
1567;SDS011;777;47.156;8.326;2024-01-06T00:50:41;4.00;;;3.00;;
1567;SDS011;777;47.156;8.326;2024-01-06T00:53:08;4.47;;;3.17;;
1567;SDS011;777;47.156;8.326;2024-01-06T00:55:35;4.25;;;3.35;;
1567;SDS011;777;47.156;8.326;2024-01-06T00:58:02;3.45;;;3.15;;
1567;SDS011;777;47.156;8.326;2024-01-06T01:00:30;3.80;;;3.50;;
1567;SDS011;777;47.156;8.326;2024-01-06T01:02:57;4.32;;;3.92;;
1567;SDS011;777;47.156;8.326;2024-01-06T01:05:24;4.47;;;4.18;;
1567;SDS011;777;47.156;8.326;2024-01-06T01:07:50;4.38;;;3.97;;
1567;SDS011;777;47.156;8.326;2024-01-06T01:10:17;4.05;;;3.65;;
1567;SDS011;777;47.156;8.326;2024-01-06T01:12:44;4.13;;;3.72;;
1567;SDS011;777;47.156;8.326;2024-01-06T01:15:11;4.63;;;4.22;;
1567;SDS011;777;47.156;8.326;2024-01-06T01:17:39;4.13;;;3.83;;
1567;SDS011;777;47.156;8.326;2024-01-06T01:20:07;4.00;;;3.50;;
1567;SDS011;777;47.156;8.326;2024-01-06T01:22:34;3.67;;;3.38;;
1567;SDS011;777;47.156;8.326;2024-01-06T01:25:01;4.28;;;3.60;;
1567;SDS011;777;47.156;8.326;2024-01-06T01:27:32;3.80;;;3.40;;
1567;SDS011;777;47.156;8.326;2024-01-06T01:29:59;3.30;;;3.00;;
1567;SDS011;777;47.156;8.326;2024-01-06T01:32:26;3.30;;;3.00;;
1567;SDS011;777;47.156;8.326;2024-01-06T01:34:54;3.28;;;2.97;;
1567;SDS011;777;47.156;8.326;2024-01-06T01:37:21;3.10;;;2.80;;
1567;SDS011;777;47.156;8.326;2024-01-06T01:39:48;2.95;;;2.72;;
1567;SDS011;777;47.156;8.326;2024-01-06T01:42:15;3.72;;;2.30;;
1567;SDS011;777;47.156;8.326;2024-01-06T01:44:42;5.18;;;2.50;;
1567;SDS011;777;47.156;8.326;2024-01-06T01:47:09;2.47;;;2.20;;
1567;SDS011;777;47.156;8.326;2024-01-06T01:49:37;2.60;;;2.40;;
1567;SDS011;777;47.156;8.326;2024-01-06T01:52:06;2.47;;;2.28;;
1567;SDS011;777;47.156;8.326;2024-01-06T01:54:33;2.50;;;2.30;;
1567;SDS011;777;47.156;8.326;2024-01-06T01:57:00;3.00;;;2.42;;
1567;SDS011;777;47.156;8.326;2024-01-06T01:59:28;2.20;;;2.00;;
1567;SDS011;777;47.156;8.326;2024-01-06T02:01:55;2.22;;;2.05;;
1567;SDS011;777;47.156;8.326;2024-01-06T02:04:22;1.67;;;1.58;;
1567;SDS011;777;47.156;8.326;2024-01-06T02:06:49;2.50;;;2.17;;
1567;SDS011;777;47.156;8.326;2024-01-06T02:09:17;2.60;;;2.38;;
1567;SDS011;777;47.156;8.326;2024-01-06T02:11:44;1.95;;;1.85;;
1567;SDS011;777;47.156;8.326;2024-01-06T02:14:11;2.10;;;2.00;;
1567;SDS011;777;47.156;8.326;2024-01-06T02:16:38;2.63;;;2.20;;
1567;SDS011;777;47.156;8.326;2024-01-06T02:19:05;2.50;;;2.30;;
1567;SDS011;777;47.156;8.326;2024-01-06T02:21:34;2.38;;;2.17;;
1567;SDS011;777;47.156;8.326;2024-01-06T02:24:08;2.72;;;2.53;;
1567;SDS011;777;47.156;8.326;2024-01-06T02:26:34;2.80;;;2.60;;
1567;SDS011;777;47.156;8.326;2024-01-06T02:29:01;2.70;;;2.50;;
1567;SDS011;777;47.156;8.326;2024-01-06T02:31:28;2.60;;;2.40;;
1567;SDS011;777;47.156;8.326;2024-01-06T02:33:55;2.47;;;2.28;;
1567;SDS011;777;47.156;8.326;2024-01-06T02:36:22;2.60;;;2.40;;
1567;SDS011;777;47.156;8.326;2024-01-06T02:38:49;2.80;;;2.60;;
1567;SDS011;777;47.156;8.326;2024-01-06T02:41:17;2.67;;;2.47;;
1567;SDS011;777;47.156;8.326;2024-01-06T02:43:44;2.63;;;2.42;;
1567;SDS011;777;47.156;8.326;2024-01-06T02:46:11;2.80;;;2.60;;
1567;SDS011;777;47.156;8.326;2024-01-06T02:48:38;3.00;;;2.80;;
1567;SDS011;777;47.156;8.326;2024-01-06T02:51:05;3.38;;;3.08;;
1567;SDS011;777;47.156;8.326;2024-01-06T02:53:32;3.00;;;2.80;;
1567;SDS011;777;47.156;8.326;2024-01-06T02:55:59;3.83;;;2.80;;
1567;SDS011;777;47.156;8.326;2024-01-06T02:58:27;3.15;;;2.80;;
1567;SDS011;777;47.156;8.326;2024-01-06T03:00:54;3.53;;;3.20;;
1567;SDS011;777;47.156;8.326;2024-01-06T03:03:21;2.92;;;2.63;;
1567;SDS011;777;47.156;8.326;2024-01-06T03:05:48;3.42;;;3.13;;
1567;SDS011;777;47.156;8.326;2024-01-06T03:08:15;3.17;;;2.97;;
1567;SDS011;777;47.156;8.326;2024-01-06T03:10:42;3.97;;;3.33;;
1567;SDS011;777;47.156;8.326;2024-01-06T03:13:09;3.95;;;3.53;;
1567;SDS011;777;47.156;8.326;2024-01-06T03:15:38;4.10;;;3.80;;
1567;SDS011;777;47.156;8.326;2024-01-06T03:18:04;4.03;;;3.72;;
1567;SDS011;777;47.156;8.326;2024-01-06T03:20:32;3.88;;;3.58;;
1567;SDS011;777;47.156;8.326;2024-01-06T03:22:59;4.20;;;3.80;;
1567;SDS011;777;47.156;8.326;2024-01-06T03:25:25;4.13;;;3.80;;
1567;SDS011;777;47.156;8.326;2024-01-06T03:27:52;5.22;;;4.80;;
1567;SDS011;777;47.156;8.326;2024-01-06T03:30:19;5.97;;;5.38;;
1567;SDS011;777;47.156;8.326;2024-01-06T03:32:47;5.55;;;5.05;;
1567;SDS011;777;47.156;8.326;2024-01-06T03:35:14;6.50;;;5.90;;
1567;SDS011;777;47.156;8.326;2024-01-06T03:37:41;6.07;;;5.57;;
1567;SDS011;777;47.156;8.326;2024-01-06T03:40:09;7.18;;;6.55;;
1567;SDS011;777;47.156;8.326;2024-01-06T03:42:39;8.75;;;7.95;;
1567;SDS011;777;47.156;8.326;2024-01-06T03:45:06;7.97;;;7.28;;
1567;SDS011;777;47.156;8.326;2024-01-06T03:47:33;7.85;;;7.25;;
1567;SDS011;777;47.156;8.326;2024-01-06T03:50:02;7.40;;;6.80;;
1567;SDS011;777;47.156;8.326;2024-01-06T03:52:29;8.07;;;7.47;;
1567;SDS011;777;47.156;8.326;2024-01-06T03:54:56;8.23;;;7.53;;
1567;SDS011;777;47.156;8.326;2024-01-06T03:57:23;8.23;;;7.53;;
1567;SDS011;777;47.156;8.326;2024-01-06T03:59:50;8.13;;;7.53;;
1567;SDS011;777;47.156;8.326;2024-01-06T04:02:17;8.20;;;7.57;;
1567;SDS011;777;47.156;8.326;2024-01-06T04:04:43;8.70;;;6.47;;
1567;SDS011;777;47.156;8.326;2024-01-06T04:07:12;8.05;;;7.35;;
1567;SDS011;777;47.156;8.326;2024-01-06T04:09:41;7.55;;;6.90;;
1567;SDS011;777;47.156;8.326;2024-01-06T04:12:08;7.85;;;7.25;;
1567;SDS011;777;47.156;8.326;2024-01-06T04:14:35;6.55;;;5.95;;
1567;SDS011;777;47.156;8.326;2024-01-06T04:17:02;7.55;;;6.95;;
1567;SDS011;777;47.156;8.326;2024-01-06T04:19:29;7.20;;;6.60;;
1567;SDS011;777;47.156;8.326;2024-01-06T04:21:56;8.25;;;7.55;;
1567;SDS011;777;47.156;8.326;2024-01-06T04:24:25;8.60;;;7.85;;
1567;SDS011;777;47.156;8.326;2024-01-06T04:26:52;9.05;;;8.15;;
1567;SDS011;777;47.156;8.326;2024-01-06T04:29:19;7.93;;;7.25;;
1567;SDS011;777;47.156;8.326;2024-01-06T04:31:46;8.48;;;7.78;;
1567;SDS011;777;47.156;8.326;2024-01-06T04:34:13;8.38;;;7.68;;
1567;SDS011;777;47.156;8.326;2024-01-06T04:36:40;9.07;;;8.27;;
1567;SDS011;777;47.156;8.326;2024-01-06T04:39:06;9.07;;;8.38;;
1567;SDS011;777;47.156;8.326;2024-01-06T04:41:35;9.70;;;8.90;;
1567;SDS011;777;47.156;8.326;2024-01-06T04:44:02;9.38;;;8.68;;
1567;SDS011;777;47.156;8.326;2024-01-06T04:46:29;9.90;;;9.20;;
1567;SDS011;777;47.156;8.326;2024-01-06T04:48:56;10.60;;;9.77;;
1567;SDS011;777;47.156;8.326;2024-01-06T04:51:23;10.13;;;9.32;;
1567;SDS011;777;47.156;8.326;2024-01-06T04:53:50;8.43;;;7.82;;
1567;SDS011;777;47.156;8.326;2024-01-06T04:56:17;8.50;;;7.80;;
1567;SDS011;777;47.156;8.326;2024-01-06T04:58:45;8.90;;;8.30;;
1567;SDS011;777;47.156;8.326;2024-01-06T05:01:12;7.88;;;7.28;;
1567;SDS011;777;47.156;8.326;2024-01-06T05:03:39;7.53;;;6.95;;
1567;SDS011;777;47.156;8.326;2024-01-06T05:06:06;7.72;;;7.13;;
1567;SDS011;777;47.156;8.326;2024-01-06T05:08:33;5.68;;;5.25;;
1567;SDS011;777;47.156;8.326;2024-01-06T05:11:04;4.97;;;4.57;;
1567;SDS011;777;47.156;8.326;2024-01-06T05:13:32;6.22;;;5.72;;
1567;SDS011;777;47.156;8.326;2024-01-06T05:16:00;5.30;;;4.90;;
1567;SDS011;777;47.156;8.326;2024-01-06T05:18:27;5.13;;;4.72;;
1567;SDS011;777;47.156;8.326;2024-01-06T05:20:54;5.30;;;4.88;;
1567;SDS011;777;47.156;8.326;2024-01-06T05:23:21;5.50;;;5.10;;
1567;SDS011;777;47.156;8.326;2024-01-06T05:25:48;5.50;;;5.10;;
1567;SDS011;777;47.156;8.326;2024-01-06T05:28:15;5.10;;;4.70;;
1567;SDS011;777;47.156;8.326;2024-01-06T05:30:42;4.90;;;4.50;;
1567;SDS011;777;47.156;8.326;2024-01-06T05:33:11;4.25;;;3.95;;
1567;SDS011;777;47.156;8.326;2024-01-06T05:35:40;4.68;;;4.38;;
1567;SDS011;777;47.156;8.326;2024-01-06T05:38:07;4.30;;;4.00;;
1567;SDS011;777;47.156;8.326;2024-01-06T05:40:34;4.68;;;4.28;;
1567;SDS011;777;47.156;8.326;2024-01-06T05:43:01;5.40;;;5.00;;
1567;SDS011;777;47.156;8.326;2024-01-06T05:45:28;4.57;;;4.22;;
1567;SDS011;777;47.156;8.326;2024-01-06T05:47:55;5.18;;;4.78;;
1567;SDS011;777;47.156;8.326;2024-01-06T05:50:23;6.10;;;5.60;;
1567;SDS011;777;47.156;8.326;2024-01-06T05:52:50;5.07;;;4.68;;
1567;SDS011;777;47.156;8.326;2024-01-06T05:55:17;6.05;;;5.60;;
1567;SDS011;777;47.156;8.326;2024-01-06T05:57:45;5.70;;;5.20;;
1567;SDS011;777;47.156;8.326;2024-01-06T06:00:12;5.20;;;4.80;;
1567;SDS011;777;47.156;8.326;2024-01-06T06:02:40;5.63;;;5.13;;
1567;SDS011;777;47.156;8.326;2024-01-06T06:05:07;5.57;;;5.07;;
1567;SDS011;777;47.156;8.326;2024-01-06T06:07:35;6.22;;;5.68;;
1567;SDS011;777;47.156;8.326;2024-01-06T06:10:05;5.93;;;5.43;;
1567;SDS011;777;47.156;8.326;2024-01-06T06:12:33;6.07;;;5.57;;
1567;SDS011;777;47.156;8.326;2024-01-06T06:15:01;6.65;;;6.15;;
1567;SDS011;777;47.156;8.326;2024-01-06T06:17:28;7.00;;;6.40;;
1567;SDS011;777;47.156;8.326;2024-01-06T06:19:55;7.40;;;6.78;;
1567;SDS011;777;47.156;8.326;2024-01-06T06:22:23;7.40;;;6.80;;
1567;SDS011;777;47.156;8.326;2024-01-06T06:24:53;6.68;;;6.07;;
1567;SDS011;777;47.156;8.326;2024-01-06T06:27:20;7.25;;;6.65;;
1567;SDS011;777;47.156;8.326;2024-01-06T06:29:46;6.85;;;6.28;;
1567;SDS011;777;47.156;8.326;2024-01-06T06:32:14;7.20;;;6.60;;
1567;SDS011;777;47.156;8.326;2024-01-06T06:34:41;6.75;;;6.25;;
1567;SDS011;777;47.156;8.326;2024-01-06T06:37:09;6.93;;;6.43;;
1567;SDS011;777;47.156;8.326;2024-01-06T06:39:36;7.90;;;7.20;;
1567;SDS011;777;47.156;8.326;2024-01-06T06:42:04;7.25;;;6.65;;
1567;SDS011;777;47.156;8.326;2024-01-06T06:44:31;8.23;;;7.53;;
1567;SDS011;777;47.156;8.326;2024-01-06T06:46:58;7.43;;;6.85;;
1567;SDS011;777;47.156;8.326;2024-01-06T06:49:25;7.85;;;7.25;;
1567;SDS011;777;47.156;8.326;2024-01-06T06:51:52;7.25;;;6.65;;
1567;SDS011;777;47.156;8.326;2024-01-06T06:54:21;7.53;;;6.93;;
1567;SDS011;777;47.156;8.326;2024-01-06T06:56:48;7.95;;;7.35;;
1567;SDS011;777;47.156;8.326;2024-01-06T06:59:16;9.18;;;8.38;;
1567;SDS011;777;47.156;8.326;2024-01-06T07:01:43;10.98;;;10.05;;
1567;SDS011;777;47.156;8.326;2024-01-06T07:04:10;10.45;;;9.65;;
1567;SDS011;777;47.156;8.326;2024-01-06T07:06:37;10.60;;;9.70;;
1567;SDS011;777;47.156;8.326;2024-01-06T07:09:04;9.85;;;8.95;;
1567;SDS011;777;47.156;8.326;2024-01-06T07:11:31;9.65;;;8.85;;
1567;SDS011;777;47.156;8.326;2024-01-06T07:13:58;10.57;;;9.68;;
1567;SDS011;777;47.156;8.326;2024-01-06T07:16:26;10.15;;;9.35;;
1567;SDS011;777;47.156;8.326;2024-01-06T07:18:53;10.88;;;9.98;;
1567;SDS011;777;47.156;8.326;2024-01-06T07:21:20;10.35;;;9.52;;
1567;SDS011;777;47.156;8.326;2024-01-06T07:23:48;11.95;;;10.95;;
1567;SDS011;777;47.156;8.326;2024-01-06T07:26:15;11.07;;;10.07;;
1567;SDS011;777;47.156;8.326;2024-01-06T07:28:42;11.48;;;10.52;;
1567;SDS011;777;47.156;8.326;2024-01-06T07:31:09;10.40;;;9.60;;
1567;SDS011;777;47.156;8.326;2024-01-06T07:33:38;10.15;;;9.27;;
1567;SDS011;777;47.156;8.326;2024-01-06T07:36:05;8.98;;;8.10;;
1567;SDS011;777;47.156;8.326;2024-01-06T07:38:32;7.40;;;6.80;;
1567;SDS011;777;47.156;8.326;2024-01-06T07:40:59;7.47;;;6.78;;
1567;SDS011;777;47.156;8.326;2024-01-06T07:43:26;7.40;;;6.80;;
1567;SDS011;777;47.156;8.326;2024-01-06T07:45:53;8.30;;;7.60;;
1567;SDS011;777;47.156;8.326;2024-01-06T07:48:20;7.82;;;7.13;;
1567;SDS011;777;47.156;8.326;2024-01-06T07:50:49;7.53;;;6.78;;
1567;SDS011;777;47.156;8.326;2024-01-06T07:53:16;7.10;;;6.50;;
1567;SDS011;777;47.156;8.326;2024-01-06T07:55:43;6.78;;;6.18;;
1567;SDS011;777;47.156;8.326;2024-01-06T07:58:10;6.35;;;5.85;;
1567;SDS011;777;47.156;8.326;2024-01-06T08:00:37;4.55;;;4.15;;
1567;SDS011;777;47.156;8.326;2024-01-06T08:03:04;5.22;;;3.80;;
1567;SDS011;777;47.156;8.326;2024-01-06T08:05:31;5.75;;;5.03;;
1567;SDS011;777;47.156;8.326;2024-01-06T08:08:00;4.97;;;4.47;;
1567;SDS011;777;47.156;8.326;2024-01-06T08:10:27;4.90;;;4.50;;
1567;SDS011;777;47.156;8.326;2024-01-06T08:12:54;5.40;;;4.90;;
1567;SDS011;777;47.156;8.326;2024-01-06T08:15:21;4.70;;;4.28;;
1567;SDS011;777;47.156;8.326;2024-01-06T08:17:48;5.00;;;4.50;;
1567;SDS011;777;47.156;8.326;2024-01-06T08:20:15;4.80;;;4.38;;
1567;SDS011;777;47.156;8.326;2024-01-06T08:22:42;4.78;;;4.38;;
1567;SDS011;777;47.156;8.326;2024-01-06T08:25:10;4.90;;;4.38;;
1567;SDS011;777;47.156;8.326;2024-01-06T08:27:38;3.80;;;3.50;;
1567;SDS011;777;47.156;8.326;2024-01-06T08:30:05;4.07;;;3.35;;
1567;SDS011;777;47.156;8.326;2024-01-06T08:32:33;3.85;;;3.45;;
1567;SDS011;777;47.156;8.326;2024-01-06T08:35:00;4.15;;;3.55;;
1567;SDS011;777;47.156;8.326;2024-01-06T08:37:27;4.00;;;3.60;;
1567;SDS011;777;47.156;8.326;2024-01-06T08:39:54;3.30;;;3.00;;
1567;SDS011;777;47.156;8.326;2024-01-06T08:42:22;3.47;;;3.17;;
1567;SDS011;777;47.156;8.326;2024-01-06T08:44:51;3.70;;;3.38;;
1567;SDS011;777;47.156;8.326;2024-01-06T08:47:18;3.72;;;3.28;;
1567;SDS011;777;47.156;8.326;2024-01-06T08:49:45;3.75;;;3.45;;
1567;SDS011;777;47.156;8.326;2024-01-06T08:52:12;3.80;;;3.38;;
1567;SDS011;777;47.156;8.326;2024-01-06T08:54:39;3.40;;;3.10;;
1567;SDS011;777;47.156;8.326;2024-01-06T08:57:06;3.97;;;3.58;;
1567;SDS011;777;47.156;8.326;2024-01-06T08:59:34;3.95;;;3.60;;
1567;SDS011;777;47.156;8.326;2024-01-06T09:02:02;4.10;;;3.70;;
1567;SDS011;777;47.156;8.326;2024-01-06T09:04:29;4.10;;;3.60;;
1567;SDS011;777;47.156;8.326;2024-01-06T09:06:56;4.07;;;3.67;;
1567;SDS011;777;47.156;8.326;2024-01-06T09:09:23;3.30;;;3.00;;
1567;SDS011;777;47.156;8.326;2024-01-06T09:11:50;3.55;;;3.25;;
1567;SDS011;777;47.156;8.326;2024-01-06T09:14:18;3.58;;;3.28;;
1567;SDS011;777;47.156;8.326;2024-01-06T09:16:46;3.50;;;3.20;;
1567;SDS011;777;47.156;8.326;2024-01-06T09:19:13;3.45;;;3.15;;
1567;SDS011;777;47.156;8.326;2024-01-06T09:21:40;3.60;;;3.28;;
1567;SDS011;777;47.156;8.326;2024-01-06T09:24:07;3.42;;;2.95;;
1567;SDS011;777;47.156;8.326;2024-01-06T09:26:34;3.30;;;3.00;;
1567;SDS011;777;47.156;8.326;2024-01-06T09:29:01;4.68;;;3.50;;
1567;SDS011;777;47.156;8.326;2024-01-06T09:31:29;3.40;;;3.10;;
1567;SDS011;777;47.156;8.326;2024-01-06T09:34:00;3.60;;;3.30;;
1567;SDS011;777;47.156;8.326;2024-01-06T09:36:28;4.10;;;3.70;;
1567;SDS011;777;47.156;8.326;2024-01-06T09:38:55;3.05;;;2.78;;
1567;SDS011;777;47.156;8.326;2024-01-06T09:41:22;3.10;;;2.80;;
1567;SDS011;777;47.156;8.326;2024-01-06T09:43:50;3.40;;;3.10;;
1567;SDS011;777;47.156;8.326;2024-01-06T09:46:17;4.85;;;3.10;;
1567;SDS011;777;47.156;8.326;2024-01-06T09:48:51;4.57;;;4.13;;
1567;SDS011;777;47.156;8.326;2024-01-06T09:51:21;4.95;;;4.55;;
1567;SDS011;777;47.156;8.326;2024-01-06T09:53:49;4.32;;;3.92;;
1567;SDS011;777;47.156;8.326;2024-01-06T09:56:24;3.70;;;3.40;;
1567;SDS011;777;47.156;8.326;2024-01-06T09:58:52;3.10;;;2.90;;
1567;SDS011;777;47.156;8.326;2024-01-06T10:01:20;4.05;;;3.72;;
1567;SDS011;777;47.156;8.326;2024-01-06T10:03:47;3.15;;;2.70;;
1567;SDS011;777;47.156;8.326;2024-01-06T10:06:14;3.42;;;3.13;;
1567;SDS011;777;47.156;8.326;2024-01-06T10:08:44;3.35;;;3.08;;
1567;SDS011;777;47.156;8.326;2024-01-06T10:11:14;4.07;;;3.63;;
1567;SDS011;777;47.156;8.326;2024-01-06T10:13:41;4.47;;;3.97;;
1567;SDS011;777;47.156;8.326;2024-01-06T10:16:08;4.15;;;3.85;;
1567;SDS011;777;47.156;8.326;2024-01-06T10:18:36;4.15;;;3.72;;
1567;SDS011;777;47.156;8.326;2024-01-06T10:21:03;4.38;;;3.97;;
1567;SDS011;777;47.156;8.326;2024-01-06T10:23:31;4.32;;;3.92;;
1567;SDS011;777;47.156;8.326;2024-01-06T10:26:00;4.05;;;3.75;;
1567;SDS011;777;47.156;8.326;2024-01-06T10:28:28;4.32;;;3.92;;
1567;SDS011;777;47.156;8.326;2024-01-06T10:30:55;4.72;;;4.30;;
1567;SDS011;777;47.156;8.326;2024-01-06T10:33:24;4.75;;;4.35;;
1567;SDS011;777;47.156;8.326;2024-01-06T10:35:52;4.53;;;4.20;;
1567;SDS011;777;47.156;8.326;2024-01-06T10:38:20;4.95;;;4.55;;
1567;SDS011;777;47.156;8.326;2024-01-06T10:40:55;4.88;;;4.47;;
1567;SDS011;777;47.156;8.326;2024-01-06T10:43:25;4.85;;;4.38;;
1567;SDS011;777;47.156;8.326;2024-01-06T10:45:53;4.97;;;4.47;;
1567;SDS011;777;47.156;8.326;2024-01-06T10:48:24;5.70;;;5.13;;
1567;SDS011;777;47.156;8.326;2024-01-06T10:50:51;5.85;;;4.60;;
1567;SDS011;777;47.156;8.326;2024-01-06T10:53:20;5.28;;;4.53;;
1567;SDS011;777;47.156;8.326;2024-01-06T10:55:49;5.30;;;4.85;;
1567;SDS011;777;47.156;8.326;2024-01-06T10:58:16;5.13;;;4.70;;
1567;SDS011;777;47.156;8.326;2024-01-06T11:00:45;6.05;;;5.45;;
1567;SDS011;777;47.156;8.326;2024-01-06T11:03:13;5.95;;;5.35;;
1567;SDS011;777;47.156;8.326;2024-01-06T11:05:40;6.13;;;5.38;;
1567;SDS011;777;47.156;8.326;2024-01-06T11:08:07;6.22;;;5.63;;
1567;SDS011;777;47.156;8.326;2024-01-06T11:10:35;6.47;;;5.75;;
1567;SDS011;777;47.156;8.326;2024-01-06T11:13:10;6.50;;;6.00;;
1567;SDS011;777;47.156;8.326;2024-01-06T11:15:41;6.40;;;5.90;;
1567;SDS011;777;47.156;8.326;2024-01-06T11:18:10;5.32;;;4.82;;
1567;SDS011;777;47.156;8.326;2024-01-06T11:26:41;5.22;;;4.43;;
1567;SDS011;777;47.156;8.326;2024-01-06T11:29:09;5.88;;;5.28;;
1567;SDS011;777;47.156;8.326;2024-01-06T11:31:36;5.43;;;4.97;;
1567;SDS011;777;47.156;8.326;2024-01-06T11:34:14;6.20;;;5.60;;
1567;SDS011;777;47.156;8.326;2024-01-06T11:36:43;6.55;;;5.93;;
1567;SDS011;777;47.156;8.326;2024-01-06T11:42:03;7.30;;;6.60;;
1567;SDS011;777;47.156;8.326;2024-01-06T11:44:33;6.10;;;5.43;;
1567;SDS011;777;47.156;8.326;2024-01-06T11:47:00;6.50;;;5.90;;
1567;SDS011;777;47.156;8.326;2024-01-06T11:49:31;6.78;;;6.18;;
1567;SDS011;777;47.156;8.326;2024-01-06T11:51:59;8.13;;;6.20;;
1567;SDS011;777;47.156;8.326;2024-01-06T11:54:26;6.85;;;6.25;;
1567;SDS011;777;47.156;8.326;2024-01-06T11:56:54;6.70;;;6.20;;
1567;SDS011;777;47.156;8.326;2024-01-06T11:59:22;7.32;;;6.70;;
1567;SDS011;777;47.156;8.326;2024-01-06T12:01:49;7.20;;;6.60;;
1567;SDS011;777;47.156;8.326;2024-01-06T12:04:16;6.88;;;6.28;;
1567;SDS011;777;47.156;8.326;2024-01-06T12:06:46;7.72;;;7.03;;
1567;SDS011;777;47.156;8.326;2024-01-06T12:09:13;8.32;;;7.57;;
1567;SDS011;777;47.156;8.326;2024-01-06T12:11:44;8.00;;;7.18;;
1567;SDS011;777;47.156;8.326;2024-01-06T12:14:12;7.68;;;6.97;;
1567;SDS011;777;47.156;8.326;2024-01-06T12:16:39;7.07;;;6.47;;
1567;SDS011;777;47.156;8.326;2024-01-06T12:19:06;6.57;;;6.07;;
1567;SDS011;777;47.156;8.326;2024-01-06T12:21:33;7.80;;;6.30;;
1567;SDS011;777;47.156;8.326;2024-01-06T12:24:19;6.78;;;6.18;;
1567;SDS011;777;47.156;8.326;2024-01-06T12:26:47;8.23;;;7.53;;
1567;SDS011;777;47.156;8.326;2024-01-06T12:29:16;8.30;;;7.55;;
1567;SDS011;777;47.156;8.326;2024-01-06T12:31:43;8.75;;;7.95;;
1567;SDS011;777;47.156;8.326;2024-01-06T12:34:10;8.27;;;7.57;;
1567;SDS011;777;47.156;8.326;2024-01-06T12:36:38;8.32;;;7.30;;
1567;SDS011;777;47.156;8.326;2024-01-06T12:39:06;8.48;;;7.40;;
1567;SDS011;777;47.156;8.326;2024-01-06T12:41:39;8.90;;;7.70;;
1567;SDS011;777;47.156;8.326;2024-01-06T12:44:07;9.07;;;8.18;;
1567;SDS011;777;47.156;8.326;2024-01-06T12:46:34;9.18;;;8.40;;
1567;SDS011;777;47.156;8.326;2024-01-06T12:49:01;9.43;;;8.63;;
1567;SDS011;777;47.156;8.326;2024-01-06T12:51:29;10.52;;;9.13;;
1567;SDS011;777;47.156;8.326;2024-01-06T12:53:56;9.20;;;8.30;;
1567;SDS011;777;47.156;8.326;2024-01-06T12:56:23;8.80;;;7.93;;
1567;SDS011;777;47.156;8.326;2024-01-06T12:58:51;8.73;;;7.85;;
1567;SDS011;777;47.156;8.326;2024-01-06T13:01:19;8.88;;;8.07;;
1567;SDS011;777;47.156;8.326;2024-01-06T13:03:45;9.00;;;8.20;;
1567;SDS011;777;47.156;8.326;2024-01-06T13:06:12;7.32;;;6.72;;
1567;SDS011;777;47.156;8.326;2024-01-06T13:08:41;7.13;;;6.15;;
1567;SDS011;777;47.156;8.326;2024-01-06T13:11:08;7.10;;;6.40;;
1567;SDS011;777;47.156;8.326;2024-01-06T13:13:36;6.85;;;6.20;;
1567;SDS011;777;47.156;8.326;2024-01-06T13:16:05;5.13;;;4.72;;
1567;SDS011;777;47.156;8.326;2024-01-06T13:18:32;6.45;;;4.68;;
1567;SDS011;777;47.156;8.326;2024-01-06T13:20:59;5.40;;;4.65;;
1567;SDS011;777;47.156;8.326;2024-01-06T13:23:26;5.90;;;5.00;;
1567;SDS011;777;47.156;8.326;2024-01-06T13:25:54;4.30;;;3.90;;
1567;SDS011;777;47.156;8.326;2024-01-06T13:28:22;6.05;;;4.18;;
1567;SDS011;777;47.156;8.326;2024-01-06T13:30:49;4.50;;;3.67;;
1567;SDS011;777;47.156;8.326;2024-01-06T13:33:18;6.90;;;4.30;;
1567;SDS011;777;47.156;8.326;2024-01-06T13:35:45;4.60;;;3.55;;
1567;SDS011;777;47.156;8.326;2024-01-06T13:38:12;5.43;;;4.35;;
1567;SDS011;777;47.156;8.326;2024-01-06T13:40:39;4.53;;;3.90;;
1567;SDS011;777;47.156;8.326;2024-01-06T13:43:06;4.60;;;4.20;;
1567;SDS011;777;47.156;8.326;2024-01-06T13:45:40;4.90;;;4.25;;
1567;SDS011;777;47.156;8.326;2024-01-06T13:48:09;4.78;;;4.32;;
1567;SDS011;777;47.156;8.326;2024-01-06T13:50:37;4.50;;;4.10;;
1567;SDS011;777;47.156;8.326;2024-01-06T13:53:04;9.85;;;8.32;;
1567;SDS011;777;47.156;8.326;2024-01-06T13:55:32;20.67;;;14.43;;
1567;SDS011;777;47.156;8.326;2024-01-06T13:58:00;57.10;;;35.33;;
1567;SDS011;777;47.156;8.326;2024-01-06T14:00:27;89.10;;;53.08;;
1567;SDS011;777;47.156;8.326;2024-01-06T14:02:53;74.03;;;47.15;;
1567;SDS011;777;47.156;8.326;2024-01-06T14:05:21;43.20;;;26.80;;
1567;SDS011;777;47.156;8.326;2024-01-06T14:07:50;23.45;;;14.82;;
1567;SDS011;777;47.156;8.326;2024-01-06T14:10:17;16.52;;;12.00;;
1567;SDS011;777;47.156;8.326;2024-01-06T14:12:45;9.98;;;7.63;;
1567;SDS011;777;47.156;8.326;2024-01-06T14:15:12;6.57;;;5.88;;
1567;SDS011;777;47.156;8.326;2024-01-06T14:17:39;6.07;;;5.47;;
1567;SDS011;777;47.156;8.326;2024-01-06T14:20:07;7.00;;;5.85;;
1567;SDS011;777;47.156;8.326;2024-01-06T14:22:38;6.15;;;5.53;;
1567;SDS011;777;47.156;8.326;2024-01-06T14:25:07;6.35;;;5.55;;
1567;SDS011;777;47.156;8.326;2024-01-06T14:27:34;6.78;;;5.28;;
1567;SDS011;777;47.156;8.326;2024-01-06T14:30:01;6.20;;;5.68;;
1567;SDS011;777;47.156;8.326;2024-01-06T14:32:28;6.07;;;5.57;;
1567;SDS011;777;47.156;8.326;2024-01-06T14:34:55;6.65;;;5.90;;
1567;SDS011;777;47.156;8.326;2024-01-06T14:37:22;7.20;;;6.60;;
1567;SDS011;777;47.156;8.326;2024-01-06T14:39:49;7.20;;;5.63;;
1567;SDS011;777;47.156;8.326;2024-01-06T14:42:18;7.18;;;6.07;;
1567;SDS011;777;47.156;8.326;2024-01-06T14:44:45;7.22;;;6.05;;
1567;SDS011;777;47.156;8.326;2024-01-06T14:47:12;7.15;;;6.43;;
1567;SDS011;777;47.156;8.326;2024-01-06T14:49:39;6.00;;;5.50;;
1567;SDS011;777;47.156;8.326;2024-01-06T14:52:06;8.10;;;7.38;;
1567;SDS011;777;47.156;8.326;2024-01-06T14:54:34;8.38;;;6.88;;
1567;SDS011;777;47.156;8.326;2024-01-06T14:57:01;7.30;;;6.70;;
1567;SDS011;777;47.156;8.326;2024-01-06T14:59:30;9.98;;;7.38;;
1567;SDS011;777;47.156;8.326;2024-01-06T15:01:57;8.50;;;7.47;;
1567;SDS011;777;47.156;8.326;2024-01-06T15:04:24;8.63;;;7.88;;
1567;SDS011;777;47.156;8.326;2024-01-06T15:06:51;9.15;;;8.18;;
1567;SDS011;777;47.156;8.326;2024-01-06T15:09:18;7.95;;;7.15;;
1567;SDS011;777;47.156;8.326;2024-01-06T15:11:45;9.50;;;7.88;;
1567;SDS011;777;47.156;8.326;2024-01-06T15:14:12;7.28;;;6.57;;
1567;SDS011;777;47.156;8.326;2024-01-06T15:16:40;7.18;;;6.47;;
1567;SDS011;777;47.156;8.326;2024-01-06T15:19:07;6.55;;;5.95;;
1567;SDS011;777;47.156;8.326;2024-01-06T15:21:35;7.10;;;6.40;;
1567;SDS011;777;47.156;8.326;2024-01-06T15:24:02;8.30;;;7.50;;
1567;SDS011;777;47.156;8.326;2024-01-06T15:26:30;7.43;;;6.70;;
1567;SDS011;777;47.156;8.326;2024-01-06T15:28:57;9.55;;;7.32;;
1567;SDS011;777;47.156;8.326;2024-01-06T15:31:26;7.13;;;6.43;;
1567;SDS011;777;47.156;8.326;2024-01-06T15:33:55;6.55;;;5.95;;
1567;SDS011;777;47.156;8.326;2024-01-06T15:36:22;3.95;;;3.55;;
1567;SDS011;777;47.156;8.326;2024-01-06T15:38:49;5.70;;;2.70;;
1567;SDS011;777;47.156;8.326;2024-01-06T15:41:16;3.28;;;2.67;;